Time;durP1;ratioP1;P1;durP2;ratioP2;P2;SDS_P1;SDS_P2;PMS_P1;PMS_P2;Temp;Humidity;BMP_temperature;BMP_pressure;BME280_temperature;BME280_humidity;BME280_pressure;Samples;Min_cycle;Max_cycle;Signal;HPM_P1;HPM_P2
2023/12/07 00:00:19;;;;;;;13.87;11.87;;;2.40;99.90;;;;;;5111993;27;20083;-61
2023/12/07 00:02:44;;;;;;;16.13;10.23;;;2.40;99.90;;;;;;5117219;28;20098;-61
2023/12/07 00:05:10;;;;;;;13.83;10.87;;;2.40;99.90;;;;;;5123155;28;20118;-61
2023/12/07 00:07:35;;;;;;;14.47;11.03;;;2.30;99.90;;;;;;5123149;28;20334;-61
2023/12/07 00:10:01;;;;;;;14.83;11.13;;;2.30;99.90;;;;;;5116792;28;20067;-61
2023/12/07 00:12:27;;;;;;;15.23;11.40;;;2.20;99.90;;;;;;5121785;28;20027;-63
2023/12/07 00:14:52;;;;;;;18.10;11.17;;;2.20;99.90;;;;;;5125669;28;20070;-61
2023/12/07 00:17:18;;;;;;;13.97;10.80;;;2.10;99.90;;;;;;5122479;28;20122;-61
2023/12/07 00:19:44;;;;;;;18.42;12.68;;;2.10;99.90;;;;;;5116036;27;20043;-60
2023/12/07 00:22:10;;;;;;;16.50;10.27;;;2.00;99.90;;;;;;5120968;28;20213;-60
2023/12/07 00:24:35;;;;;;;14.80;11.20;;;2.10;99.90;;;;;;5117280;28;20050;-60
2023/12/07 00:27:01;;;;;;;16.20;11.23;;;2.00;99.90;;;;;;5115293;28;20079;-61
2023/12/07 00:29:26;;;;;;;14.67;11.83;;;2.00;99.90;;;;;;5119424;28;20072;-61
2023/12/07 00:31:52;;;;;;;14.10;11.27;;;2.00;99.90;;;;;;5118127;28;20513;-61
2023/12/07 00:34:18;;;;;;;14.37;11.57;;;1.90;99.90;;;;;;5122376;27;20031;-63
2023/12/07 00:36:44;;;;;;;14.48;9.90;;;1.90;99.90;;;;;;5121637;27;20028;-61
2023/12/07 00:39:10;;;;;;;14.53;11.10;;;1.90;99.90;;;;;;5122021;27;20040;-61
2023/12/07 00:41:35;;;;;;;13.30;10.98;;;1.90;99.90;;;;;;5119893;27;20707;-60
2023/12/07 00:44:01;;;;;;;14.97;10.33;;;1.80;99.90;;;;;;5124274;27;20039;-61
2023/12/07 00:46:26;;;;;;;12.23;10.33;;;1.80;99.90;;;;;;5129021;27;20034;-60
2023/12/07 00:48:52;;;;;;;13.73;11.20;;;1.80;99.90;;;;;;5122355;27;20043;-60
2023/12/07 00:51:18;;;;;;;18.80;11.13;;;1.70;99.90;;;;;;5123813;27;20041;-62
2023/12/07 00:53:43;;;;;;;12.97;11.23;;;1.70;99.90;;;;;;5125002;27;20035;-61
2023/12/07 00:56:09;;;;;;;14.57;10.67;;;1.70;99.90;;;;;;5127915;27;20031;-60
2023/12/07 00:58:36;;;;;;;15.00;10.70;;;1.70;99.90;;;;;;5124783;27;20031;-61
2023/12/07 01:01:02;;;;;;;12.35;10.27;;;1.60;99.90;;;;;;5126594;27;20039;-60
2023/12/07 01:03:29;;;;;;;12.73;11.10;;;1.60;99.90;;;;;;5124473;27;20411;-61
2023/12/07 01:05:55;;;;;;;;;;;1.60;99.90;;;;;;5105314;27;20545;-61
2023/12/07 01:08:21;;;;;;;13.20;10.55;;;1.60;99.90;;;;;;5124680;27;19966;-61
2023/12/07 01:10:46;;;;;;;14.40;10.57;;;1.50;99.90;;;;;;5124876;27;20122;-61
2023/12/07 01:13:12;;;;;;;15.33;11.47;;;1.50;99.90;;;;;;5123507;27;20273;-61
2023/12/07 01:15:37;;;;;;;15.50;11.33;;;1.50;99.90;;;;;;5124200;27;20081;-61
2023/12/07 01:18:03;;;;;;;17.33;12.83;;;1.50;99.90;;;;;;5124824;27;20031;-61
2023/12/07 01:20:28;;;;;;;15.87;12.17;;;1.50;99.90;;;;;;5124029;27;20190;-61
2023/12/07 01:22:54;;;;;;;17.07;13.10;;;1.50;99.90;;;;;;5120564;27;20086;-61
2023/12/07 01:25:21;;;;;;;17.80;12.90;;;1.50;99.90;;;;;;5108862;27;20178;-61
2023/12/07 01:27:48;;;;;;;21.38;14.82;;;1.50;99.90;;;;;;5122105;27;20532;-62
2023/12/07 01:30:14;;;;;;;19.85;13.18;;;1.50;99.90;;;;;;5119623;27;20429;-63
2023/12/07 01:32:39;;;;;;;20.13;13.73;;;1.50;99.90;;;;;;5122278;27;20035;-61
2023/12/07 01:35:06;;;;;;;18.90;13.77;;;1.50;99.90;;;;;;5120230;27;20076;-61
2023/12/07 01:37:31;;;;;;;20.23;13.65;;;1.50;99.90;;;;;;5119415;27;20410;-61
2023/12/07 01:39:57;;;;;;;18.57;14.10;;;1.50;99.90;;;;;;5118213;27;20042;-61
2023/12/07 01:42:23;;;;;;;20.20;14.00;;;1.50;99.90;;;;;;5121170;27;20031;-60
2023/12/07 01:44:48;;;;;;;22.07;14.87;;;1.60;99.90;;;;;;5118590;27;20046;-61
2023/12/07 01:47:15;;;;;;;23.57;14.60;;;1.60;99.90;;;;;;5126622;27;20122;-61
2023/12/07 01:49:41;;;;;;;18.40;14.07;;;1.60;99.90;;;;;;5124569;27;20405;-60
2023/12/07 01:52:08;;;;;;;22.48;14.52;;;1.60;99.90;;;;;;5125061;27;20042;-61
2023/12/07 01:54:34;;;;;;;22.85;14.02;;;1.60;99.90;;;;;;5122912;27;20038;-60
2023/12/07 01:57:00;;;;;;;20.70;15.68;;;1.60;99.90;;;;;;5125435;27;20032;-60
2023/12/07 01:59:25;;;;;;;18.10;14.23;;;1.60;99.90;;;;;;5124750;27;20031;-61
2023/12/07 02:01:51;;;;;;;22.37;15.47;;;1.60;99.90;;;;;;5122926;27;20398;-60
2023/12/07 02:04:17;;;;;;;24.48;15.00;;;1.60;99.90;;;;;;5126082;27;20031;-61
2023/12/07 02:06:43;;;;;;;21.73;15.02;;;1.70;99.90;;;;;;5124105;27;20088;-60
2023/12/07 02:09:09;;;;;;;26.90;15.95;;;1.70;99.90;;;;;;5124157;27;20031;-60
2023/12/07 02:11:34;;;;;;;22.85;16.83;;;1.70;99.90;;;;;;5122260;27;20451;-61
2023/12/07 02:14:01;;;;;;;26.17;17.38;;;1.70;99.90;;;;;;5121788;27;20035;-61
2023/12/07 02:16:48;;;;;;;21.83;16.13;;;1.70;99.90;;;;;;5126864;27;20046;-60
2023/12/07 02:19:36;;;;;;;22.23;15.93;;;1.70;99.90;;;;;;5125722;27;20560;-61
2023/12/07 02:22:09;;;;;;;;;;;1.70;99.90;;;;;;5120348;27;20045;-61
2023/12/07 02:24:38;;;;;;;21.38;15.00;;;1.70;99.90;;;;;;5114703;27;20331;-61
2023/12/07 02:27:03;;;;;;;27.45;16.25;;;1.70;99.90;;;;;;5117959;27;20089;-61
2023/12/07 02:29:29;;;;;;;23.17;16.77;;;1.80;99.90;;;;;;5119452;27;20116;-61
2023/12/07 02:31:54;;;;;;;22.23;15.30;;;1.80;99.90;;;;;;5118455;27;20132;-61
2023/12/07 02:34:20;;;;;;;22.03;15.40;;;1.80;99.90;;;;;;5118994;27;20509;-61
2023/12/07 02:36:48;;;;;;;21.13;15.63;;;1.80;99.90;;;;;;5098521;28;20284;-60
2023/12/07 02:39:14;;;;;;;21.65;16.05;;;1.80;99.90;;;;;;5117994;27;20123;-61
2023/12/07 02:41:43;;;;;;;21.48;16.05;;;1.80;99.90;;;;;;5116516;27;20036;-61
2023/12/07 02:44:08;;;;;;;22.45;15.88;;;1.80;99.90;;;;;;5120652;27;20039;-61
2023/12/07 02:46:34;;;;;;;24.35;17.40;;;1.80;99.90;;;;;;5126886;27;20512;-60
2023/12/07 02:49:00;;;;;;;24.70;15.50;;;1.80;99.90;;;;;;5120221;27;20096;-60
2023/12/07 02:51:25;;;;;;;23.57;16.10;;;1.80;99.90;;;;;;5125534;27;20443;-60
2023/12/07 02:53:51;;;;;;;25.10;16.53;;;1.80;99.90;;;;;;5121674;27;20039;-60
2023/12/07 02:56:16;;;;;;;22.20;15.30;;;1.80;99.90;;;;;;5123334;27;20035;-58
2023/12/07 02:58:42;;;;;;;25.40;16.67;;;1.70;99.90;;;;;;5119766;27;20059;-62
2023/12/07 03:01:08;;;;;;;20.17;15.97;;;1.80;99.90;;;;;;5120268;27;20185;-61
2023/12/07 03:03:33;;;;;;;20.10;14.80;;;1.70;99.90;;;;;;5119878;27;20042;-60
2023/12/07 03:05:59;;;;;;;24.13;16.33;;;1.70;99.90;;;;;;5120128;27;20277;-60
2023/12/07 03:08:24;;;;;;;22.37;16.70;;;1.70;99.90;;;;;;5123770;27;20054;-60
2023/12/07 03:10:50;;;;;;;25.30;16.10;;;1.70;99.90;;;;;;5122117;27;20039;-59
2023/12/07 03:13:15;;;;;;;24.83;16.23;;;1.60;99.90;;;;;;5119912;27;20703;-60
2023/12/07 03:15:41;;;;;;;24.43;16.80;;;1.60;99.90;;;;;;5121881;27;20031;-60
2023/12/07 03:18:07;;;;;;;20.90;14.80;;;1.60;99.90;;;;;;5123493;27;20036;-60
2023/12/07 03:20:33;;;;;;;22.63;16.43;;;1.60;99.90;;;;;;5125498;27;20496;-60
2023/12/07 03:22:59;;;;;;;27.52;18.65;;;1.50;99.90;;;;;;5107386;27;20726;-60
2023/12/07 03:25:25;;;;;;;27.77;19.50;;;1.50;99.90;;;;;;5120297;27;20035;-60
2023/12/07 03:27:50;;;;;;;29.67;19.20;;;1.50;99.90;;;;;;5124624;27;20520;-60
2023/12/07 03:30:16;;;;;;;24.57;16.30;;;1.50;99.90;;;;;;5115489;27;20043;-61
2023/12/07 03:32:41;;;;;;;28.80;18.17;;;1.40;99.90;;;;;;5119790;27;20039;-63
2023/12/07 03:35:07;;;;;;;25.80;18.33;;;1.50;99.90;;;;;;5121969;27;20031;-63
2023/12/07 03:37:33;;;;;;;25.47;16.67;;;1.40;99.90;;;;;;5122582;27;20427;-62
2023/12/07 03:39:58;;;;;;;26.27;17.53;;;1.40;99.90;;;;;;5122202;27;20041;-62
2023/12/07 03:42:24;;;;;;;24.83;18.63;;;1.40;99.90;;;;;;5123743;27;20397;-60
2023/12/07 03:44:49;;;;;;;26.80;18.97;;;1.40;99.90;;;;;;5121897;27;20110;-60
2023/12/07 03:47:15;;;;;;;27.63;17.13;;;1.40;99.90;;;;;;5121225;27;20470;-61
2023/12/07 03:49:41;;;;;;;23.60;16.10;;;1.30;99.90;;;;;;5121305;27;20126;-61
2023/12/07 03:52:07;;;;;;;25.23;17.05;;;1.30;99.90;;;;;;5117775;27;20409;-60
2023/12/07 03:54:33;;;;;;;22.37;16.87;;;1.30;99.90;;;;;;5124949;27;20322;-60
2023/12/07 03:56:58;;;;;;;21.30;15.17;;;1.30;99.90;;;;;;5119701;27;20591;-60
2023/12/07 03:59:24;;;;;;;24.07;16.27;;;1.20;99.90;;;;;;5126509;28;20039;-60
2023/12/07 04:01:49;;;;;;;23.43;15.73;;;1.10;99.90;;;;;;5121478;27;20122;-60
2023/12/07 04:04:15;;;;;;;25.00;17.27;;;1.10;99.90;;;;;;5124263;28;20034;-61
2023/12/07 04:06:41;;;;;;;21.47;14.77;;;1.10;99.90;;;;;;5116532;28;20051;-62
2023/12/07 04:09:07;;;;;;;23.27;17.07;;;1.10;99.90;;;;;;5124040;27;20069;-62
2023/12/07 04:11:33;;;;;;;25.85;17.73;;;1.10;99.90;;;;;;5128149;27;20494;-62
2023/12/07 04:13:59;;;;;;;25.00;15.57;;;1.10;99.90;;;;;;5126236;27;20066;-61
2023/12/07 04:16:25;;;;;;;23.38;17.40;;;1.10;99.90;;;;;;5124723;27;20027;-61
2023/12/07 04:18:51;;;;;;;27.60;17.63;;;1.10;99.90;;;;;;5123505;27;20089;-61
2023/12/07 04:21:17;;;;;;;24.23;17.50;;;1.10;99.90;;;;;;5127684;27;20073;-61
2023/12/07 04:23:42;;;;;;;24.47;16.90;;;1.10;99.90;;;;;;5124337;27;20100;-60
2023/12/07 04:26:08;;;;;;;26.43;17.03;;;1.10;99.90;;;;;;5118675;27;20252;-61
2023/12/07 04:28:33;;;;;;;22.07;14.77;;;1.10;99.90;;;;;;5119076;27;20050;-62
2023/12/07 04:30:59;;;;;;;20.37;14.70;;;1.10;99.90;;;;;;5123447;27;20562;-61
2023/12/07 04:33:25;;;;;;;21.37;14.40;;;1.00;99.90;;;;;;5121130;27;20039;-60
2023/12/07 04:35:50;;;;;;;25.03;16.10;;;1.00;99.90;;;;;;5128439;27;20096;-60
2023/12/07 04:38:16;;;;;;;20.27;15.83;;;1.00;99.90;;;;;;5123982;27;20122;-60
2023/12/07 04:40:41;;;;;;;19.57;13.57;;;1.00;99.90;;;;;;5129643;27;20435;-59
2023/12/07 04:43:07;;;;;;;24.30;15.07;;;0.90;99.90;;;;;;5124751;27;20039;-62
2023/12/07 04:45:33;;;;;;;21.47;14.37;;;0.90;99.90;;;;;;5129686;27;20079;-62
2023/12/07 04:48:00;;;;;;;21.63;15.53;;;0.90;99.90;;;;;;5123737;27;20421;-62
2023/12/07 04:50:25;;;;;;;23.55;15.00;;;0.90;99.90;;;;;;5122409;27;20050;-62
2023/12/07 04:52:51;;;;;;;25.53;16.00;;;0.90;99.90;;;;;;5123316;27;20039;-61
2023/12/07 04:55:17;;;;;;;20.23;14.53;;;0.90;99.90;;;;;;5128413;27;20381;-62
2023/12/07 04:57:42;;;;;;;21.40;15.10;;;0.90;99.90;;;;;;5125201;27;20041;-63
2023/12/07 05:00:13;;;;;;;22.00;15.70;;;0.90;99.90;;;;;;5124662;27;20031;-61
2023/12/07 05:02:38;;;;;;;26.27;17.75;;;0.80;99.90;;;;;;5118898;27;20494;-61
2023/12/07 05:05:05;;;;;;;26.37;18.27;;;0.90;99.90;;;;;;5120036;27;20150;-62
2023/12/07 05:07:30;;;;;;;25.50;17.92;;;0.80;99.90;;;;;;5126576;27;20073;-62
2023/12/07 05:09:56;;;;;;;26.23;17.10;;;0.90;99.90;;;;;;5119748;27;20082;-62
2023/12/07 05:12:21;;;;;;;26.83;17.43;;;0.90;99.90;;;;;;5126820;27;20379;-62
2023/12/07 05:14:47;;;;;;;27.37;16.20;;;0.90;99.90;;;;;;5124039;27;20089;-63
2023/12/07 05:17:13;;;;;;;27.63;17.97;;;0.90;99.90;;;;;;5120825;27;20031;-61
2023/12/07 05:19:39;;;;;;;27.10;17.17;;;0.90;99.90;;;;;;5119363;27;20042;-62
2023/12/07 05:22:04;;;;;;;27.30;18.80;;;0.90;99.90;;;;;;5122204;27;20039;-62
2023/12/07 05:24:32;;;;;;;27.13;18.87;;;0.90;99.90;;;;;;5121463;27;20482;-62
2023/12/07 05:26:58;;;;;;;30.90;19.50;;;0.90;99.90;;;;;;5119365;27;20050;-62
2023/12/07 05:29:23;;;;;;;33.22;20.65;;;0.90;99.90;;;;;;5121781;27;20434;-62
2023/12/07 05:31:52;;;;;;;30.27;19.60;;;1.00;99.90;;;;;;5119295;27;20037;-60
2023/12/07 05:34:17;;;;;;;26.92;18.23;;;1.00;99.90;;;;;;5126496;27;20088;-62
2023/12/07 05:36:43;;;;;;;29.27;18.70;;;1.00;99.90;;;;;;5124135;27;20035;-61
2023/12/07 05:39:11;;;;;;;27.00;18.52;;;1.00;99.90;;;;;;5123821;27;20074;-62
2023/12/07 05:41:37;;;;;;;30.33;20.45;;;1.00;99.90;;;;;;5126776;27;20043;-62
2023/12/07 05:44:03;;;;;;;28.17;18.92;;;1.00;99.90;;;;;;5126399;27;20042;-62
2023/12/07 05:46:29;;;;;;;28.90;18.40;;;1.00;99.90;;;;;;5125329;27;20051;-62
2023/12/07 05:48:55;;;;;;;30.73;19.33;;;1.00;99.90;;;;;;5123907;27;20031;-62
2023/12/07 05:51:20;;;;;;;32.43;20.87;;;1.00;99.90;;;;;;5126551;27;20559;-62
2023/12/07 05:53:46;;;;;;;31.03;20.00;;;1.00;99.90;;;;;;5122029;27;20312;-62
2023/12/07 05:56:12;;;;;;;30.27;21.03;;;1.00;99.90;;;;;;5125207;27;20119;-62
2023/12/07 05:58:38;;;;;;;34.45;22.70;;;1.00;99.90;;;;;;5123236;27;20115;-62
2023/12/07 06:01:03;;;;;;;31.63;20.40;;;1.10;99.90;;;;;;5124716;27;21217;-62
2023/12/07 06:03:29;;;;;;;37.10;22.25;;;1.10;99.90;;;;;;5119899;27;20405;-62
2023/12/07 06:05:55;;;;;;;31.13;19.45;;;1.10;99.90;;;;;;5124684;27;20088;-62
2023/12/07 06:08:22;;;;;;;32.33;20.40;;;1.10;99.90;;;;;;5121960;27;20035;-62
2023/12/07 06:10:47;;;;;;;30.80;20.63;;;1.10;99.90;;;;;;5125420;27;20046;-62
2023/12/07 06:13:13;;;;;;;32.83;21.42;;;1.10;99.90;;;;;;5127683;27;20402;-62
2023/12/07 06:15:39;;;;;;;44.13;23.98;;;1.10;99.90;;;;;;5124088;27;20049;-62
2023/12/07 06:18:05;;;;;;;33.92;22.50;;;1.20;99.90;;;;;;5122922;27;20077;-62
2023/12/07 06:20:31;;;;;;;31.88;22.10;;;1.20;99.90;;;;;;5123405;27;20519;-62
2023/12/07 06:22:57;;;;;;;34.28;22.45;;;1.20;99.90;;;;;;5125212;27;20046;-62
2023/12/07 06:25:24;;;;;;;33.97;22.50;;;1.20;99.90;;;;;;5120389;27;20036;-62
2023/12/07 06:27:50;;;;;;;37.95;23.15;;;1.20;99.90;;;;;;5114666;27;20055;-62
2023/12/07 06:30:16;;;;;;;34.25;23.23;;;1.20;99.90;;;;;;5119238;27;20401;-62
2023/12/07 06:32:41;;;;;;;39.15;24.67;;;1.20;99.90;;;;;;5125802;27;20042;-62
2023/12/07 06:35:08;;;;;;;36.45;23.00;;;1.30;99.90;;;;;;5120473;27;20115;-62
2023/12/07 06:37:33;;;;;;;34.53;23.15;;;1.30;99.90;;;;;;5128134;27;20027;-62
2023/12/07 06:40:00;;;;;;;36.83;22.52;;;1.30;99.90;;;;;;5119662;27;20554;-62
2023/12/07 06:42:26;;;;;;;37.47;24.52;;;1.30;99.90;;;;;;5127567;27;20045;-62
2023/12/07 06:44:52;;;;;;;36.72;22.98;;;1.30;99.90;;;;;;5124565;27;20046;-63
2023/12/07 06:47:18;;;;;;;36.53;23.67;;;1.30;99.90;;;;;;5127773;27;20023;-62
2023/12/07 06:49:44;;;;;;;35.90;24.52;;;1.30;99.90;;;;;;5117992;27;20036;-62
2023/12/07 06:52:10;;;;;;;39.78;23.77;;;1.30;99.90;;;;;;5123052;27;20062;-62
2023/12/07 06:54:36;;;;;;;37.83;24.02;;;1.30;99.90;;;;;;5128405;27;20050;-62
2023/12/07 06:57:02;;;;;;;39.15;24.50;;;1.30;99.90;;;;;;5133738;27;20027;-62
2023/12/07 06:59:28;;;;;;;37.80;23.67;;;1.30;99.90;;;;;;5119921;27;20037;-62
2023/12/07 07:01:54;;;;;;;38.97;25.00;;;1.30;99.90;;;;;;5115332;27;20039;-63
2023/12/07 07:04:19;;;;;;;37.25;23.83;;;1.20;99.90;;;;;;5116317;27;20034;-62
2023/12/07 07:06:45;;;;;;;37.20;25.37;;;1.20;99.90;;;;;;5118433;27;20361;-62
2023/12/07 07:09:12;;;;;;;35.43;24.30;;;1.30;99.90;;;;;;5119340;27;20132;-62
2023/12/07 07:11:38;;;;;;;42.35;26.98;;;1.30;99.90;;;;;;5123348;27;20066;-61
2023/12/07 07:14:04;;;;;;;45.85;26.35;;;1.30;99.90;;;;;;5113328;27;20059;-62
2023/12/07 07:16:30;;;;;;;38.17;26.30;;;1.30;99.90;;;;;;5116041;27;20078;-62
2023/12/07 07:18:56;;;;;;;38.47;26.25;;;1.30;99.90;;;;;;5122677;27;20469;-62
2023/12/07 07:21:21;;;;;;;43.27;27.30;;;1.30;99.90;;;;;;5121034;27;20409;-62
2023/12/07 07:23:47;;;;;;;39.30;27.10;;;1.30;99.90;;;;;;5117939;27;20114;-62
2023/12/07 07:26:16;;;;;;;41.27;26.27;;;1.30;99.90;;;;;;5120163;27;20278;-62
2023/12/07 07:28:43;;;;;;;39.35;24.98;;;1.30;99.90;;;;;;5125391;27;20074;-62
2023/12/07 07:31:08;;;;;;;41.47;24.98;;;1.30;99.90;;;;;;5127301;27;20043;-62
2023/12/07 07:33:34;;;;;;;37.37;27.13;;;1.20;99.90;;;;;;5125628;27;20504;-60
2023/12/07 07:36:00;;;;;;;44.13;27.57;;;1.20;99.90;;;;;;5122734;27;20043;-62
2023/12/07 07:38:25;;;;;;;40.30;26.33;;;1.20;99.90;;;;;;5118011;27;20469;-61
2023/12/07 07:40:51;;;;;;;40.07;25.37;;;1.20;99.90;;;;;;5113828;27;20277;-61
2023/12/07 07:43:17;;;;;;;42.90;29.13;;;1.20;99.90;;;;;;5116894;27;20043;-62
2023/12/07 07:45:43;;;;;;;44.45;28.98;;;1.20;99.90;;;;;;5112791;27;20054;-62
2023/12/07 07:48:09;;;;;;;46.47;30.00;;;1.20;99.90;;;;;;5111928;27;20027;-62
2023/12/07 07:50:36;;;;;;;41.53;28.02;;;1.10;99.90;;;;;;5117905;27;20042;-62
2023/12/07 07:53:02;;;;;;;50.00;29.15;;;1.10;99.90;;;;;;5110564;27;20052;-62
2023/12/07 07:55:27;;;;;;;52.50;29.58;;;1.10;99.90;;;;;;5123659;27;20053;-62
2023/12/07 07:57:53;;;;;;;51.07;30.73;;;1.10;99.90;;;;;;5113312;27;20101;-62
2023/12/07 08:00:19;;;;;;;44.08;29.05;;;1.10;99.90;;;;;;5107575;27;20509;-62
2023/12/07 08:02:46;;;;;;;47.38;30.15;;;1.10;99.90;;;;;;5120771;27;20099;-62
2023/12/07 08:05:12;;;;;;;48.05;31.00;;;1.10;99.90;;;;;;5126647;28;20028;-62
2023/12/07 08:07:40;;;;;;;46.72;29.35;;;1.10;99.90;;;;;;5121963;27;20040;-63
2023/12/07 08:10:06;;;;;;;43.22;28.90;;;1.20;99.90;;;;;;5116790;28;20065;-61
2023/12/07 08:12:33;;;;;;;42.55;27.45;;;1.30;99.90;;;;;;5117905;28;20036;-62
2023/12/07 08:14:58;;;;;;;38.50;25.75;;;1.40;99.90;;;;;;5106481;28;20078;-62
2023/12/07 08:17:26;;;;;;;37.27;26.30;;;1.50;99.90;;;;;;5119429;28;20031;-62
2023/12/07 08:19:52;;;;;;;39.80;26.40;;;1.50;99.90;;;;;;5109535;27;20100;-62
2023/12/07 08:22:17;;;;;;;37.78;25.67;;;1.50;99.90;;;;;;5123504;28;20031;-63
2023/12/07 08:24:43;;;;;;;42.33;27.27;;;1.50;99.90;;;;;;5108752;27;20108;-62
2023/12/07 08:27:09;;;;;;;36.28;24.38;;;1.50;99.90;;;;;;5117997;28;20035;-63
2023/12/07 08:29:36;;;;;;;37.40;24.63;;;1.30;99.90;;;;;;5123687;28;20051;-62
2023/12/07 08:32:02;;;;;;;42.42;25.35;;;1.20;99.90;;;;;;5116188;27;20042;-62
2023/12/07 08:34:28;;;;;;;165.60;34.63;;;1.10;99.90;;;;;;5120985;27;20475;-62
2023/12/07 08:36:54;;;;;;;134.60;29.00;;;1.00;99.90;;;;;;5122061;27;20040;-62
2023/12/07 08:39:19;;;;;;;329.60;39.90;;;0.90;99.90;;;;;;5105832;28;20032;-62
2023/12/07 08:41:45;;;;;;;260.87;35.97;;;0.70;99.90;;;;;;5117757;28;20051;-62
2023/12/07 08:44:11;;;;;;;262.57;35.77;;;0.60;99.90;;;;;;5111767;28;20148;-62
2023/12/07 08:46:36;;;;;;;250.90;37.75;;;0.50;99.90;;;;;;5111594;28;20252;-62
2023/12/07 08:49:02;;;;;;;214.80;36.00;;;0.50;99.90;;;;;;5111295;28;20034;-62
2023/12/07 08:51:28;;;;;;;219.30;37.30;;;0.40;99.90;;;;;;5103480;28;20043;-62
2023/12/07 08:53:54;;;;;;;136.18;27.15;;;0.30;99.90;;;;;;5103357;28;20086;-62
2023/12/07 08:56:20;;;;;;;224.13;38.35;;;0.30;99.90;;;;;;5126215;27;20413;-62
2023/12/07 08:58:45;;;;;;;217.75;32.92;;;0.30;99.90;;;;;;5126543;27;20088;-60
2023/12/07 09:01:11;;;;;;;210.30;36.60;;;0.30;99.90;;;;;;5121405;27;20114;-62
2023/12/07 09:03:37;;;;;;;225.25;30.63;;;0.30;99.90;;;;;;5124988;27;20031;-62
2023/12/07 09:06:03;;;;;;;290.73;34.97;;;0.20;99.90;;;;;;5117749;27;20039;-62
2023/12/07 09:08:28;;;;;;;205.68;33.75;;;0.20;99.90;;;;;;5120542;27;20039;-62
2023/12/07 09:10:54;;;;;;;251.37;38.03;;;0.20;99.90;;;;;;5115775;27;20387;-61
2023/12/07 09:13:20;;;;;;;257.35;39.10;;;0.20;99.90;;;;;;5115811;27;20046;-61
2023/12/07 09:15:46;;;;;;;193.73;30.57;;;0.20;99.90;;;;;;5123383;27;20031;-62
2023/12/07 09:18:11;;;;;;;174.67;32.87;;;0.10;99.90;;;;;;5113576;27;20534;-62
2023/12/07 09:20:45;;;;;;;185.10;38.73;;;0.10;99.90;;;;;;5123713;27;20035;-62
2023/12/07 09:23:16;;;;;;;201.68;38.40;;;0.10;99.90;;;;;;5116786;27;20043;-63
2023/12/07 09:25:43;;;;;;;215.98;44.03;;;0.10;99.90;;;;;;5113317;27;20043;-62
2023/12/07 09:28:08;;;;;;;207.25;40.00;;;0.10;99.90;;;;;;5126653;27;20067;-62
2023/12/07 09:30:34;;;;;;;187.63;40.03;;;0.10;99.90;;;;;;5116538;27;20070;-63
2023/12/07 09:33:04;;;;;;;126.93;33.47;;;0.10;99.90;;;;;;5122910;27;20489;-63
2023/12/07 09:35:29;;;;;;;154.70;37.80;;;0.20;99.90;;;;;;5123385;27;20065;-63
2023/12/07 09:37:55;;;;;;;182.70;39.20;;;0.20;99.90;;;;;;5123605;27;20063;-63
2023/12/07 09:40:22;;;;;;;117.17;32.97;;;0.20;99.90;;;;;;5114706;27;20276;-63
2023/12/07 09:42:49;;;;;;;165.40;43.08;;;0.30;99.90;;;;;;5125470;27;20648;-64
2023/12/07 09:45:18;;;;;;;210.80;44.15;;;0.30;99.90;;;;;;5121131;27;20048;-63
2023/12/07 09:47:47;;;;;;;248.55;55.45;;;0.30;99.90;;;;;;5117173;27;20432;-63
2023/12/07 09:50:17;;;;;;;210.63;52.00;;;0.30;99.90;;;;;;5127247;27;20065;-63
2023/12/07 09:52:43;;;;;;;214.93;56.40;;;0.30;99.90;;;;;;5110250;27;20113;-62
2023/12/07 09:55:09;;;;;;;251.40;56.27;;;0.30;99.90;;;;;;5126518;27;20128;-63
2023/12/07 09:57:38;;;;;;;;;;;0.30;99.90;;;;;;5117075;27;20441;-62
2023/12/07 10:00:04;;;;;;;296.98;60.22;;;0.30;99.90;;;;;;5101716;27;19942;-62
2023/12/07 10:02:30;;;;;;;;;;;0.30;99.90;;;;;;5110870;27;20065;-62
2023/12/07 10:05:10;;;;;;;307.42;62.17;;;0.30;99.90;;;;;;5116437;27;20392;-62
2023/12/07 10:07:39;;;;;;;234.05;49.33;;;0.30;99.90;;;;;;5109866;27;20068;-62
2023/12/07 10:10:05;;;;;;;275.05;60.67;;;0.30;99.90;;;;;;5118854;27;20390;-62
2023/12/07 10:12:33;;;;;;;275.40;57.47;;;0.40;99.90;;;;;;5111351;27;20037;-62
2023/12/07 10:15:13;;;;;;;279.33;55.88;;;0.40;99.90;;;;;;5116534;27;20039;-62
2023/12/07 10:17:49;;;;;;;393.92;72.25;;;0.40;99.90;;;;;;5117601;27;20050;-62
2023/12/07 10:20:23;;;;;;;334.15;65.15;;;0.50;99.90;;;;;;5111420;27;20048;-62
2023/12/07 10:23:01;;;;;;;273.10;60.38;;;0.50;99.90;;;;;;5128800;27;20043;-62
2023/12/07 10:25:26;;;;;;;257.08;62.15;;;0.50;99.90;;;;;;5110890;27;20039;-63
2023/12/07 10:27:52;;;;;;;299.73;64.57;;;0.50;99.90;;;;;;5123515;27;20564;-62
2023/12/07 10:30:24;;;;;;;276.90;65.47;;;0.60;99.90;;;;;;5126729;27;20184;-62
2023/12/07 10:32:50;;;;;;;386.60;68.78;;;0.60;99.90;;;;;;5122260;27;20113;-62
2023/12/07 10:35:16;;;;;;;;;;;0.60;99.90;;;;;;5124853;27;20040;-62
2023/12/07 10:37:42;;;;;;;292.75;65.65;;;0.70;99.90;;;;;;5127910;27;20311;-62
2023/12/07 10:40:08;;;;;;;337.73;70.83;;;0.70;99.90;;;;;;5124863;27;20490;-62
2023/12/07 10:42:35;;;;;;;252.43;61.97;;;0.70;99.90;;;;;;5126962;27;20043;-62
2023/12/07 10:45:05;;;;;;;329.05;73.78;;;0.80;99.90;;;;;;5129069;27;20043;-62
2023/12/07 10:47:38;;;;;;;255.52;63.45;;;0.80;99.90;;;;;;5123395;27;20047;-63
2023/12/07 10:50:10;;;;;;;283.88;64.97;;;0.80;99.90;;;;;;5127751;27;20512;-62
2023/12/07 10:52:40;;;;;;;289.38;69.82;;;0.90;99.90;;;;;;5119202;27;20054;-63
2023/12/07 10:55:09;;;;;;;254.98;58.17;;;0.90;99.90;;;;;;5123014;27;20062;-63
2023/12/07 10:57:37;;;;;;;326.30;65.05;;;0.90;99.90;;;;;;5131243;27;20038;-62
2023/12/07 11:00:03;;;;;;;294.00;60.97;;;1.00;99.90;;;;;;5124266;27;20054;-62
2023/12/07 11:02:32;;;;;;;268.35;62.08;;;1.00;99.90;;;;;;5124364;27;20035;-62
2023/12/07 11:04:59;;;;;;;301.80;61.78;;;1.00;99.90;;;;;;5118453;27;20040;-62
2023/12/07 11:07:33;;;;;;;294.63;59.75;;;0.90;99.90;;;;;;5115812;27;20096;-62
2023/12/07 11:10:07;;;;;;;308.73;68.25;;;1.00;99.90;;;;;;5114230;27;20095;-62
2023/12/07 11:12:59;;;;;;;251.27;61.67;;;0.90;99.90;;;;;;5117982;27;20118;-62
2023/12/07 11:15:26;;;;;;;278.20;63.15;;;1.00;99.90;;;;;;5119967;27;20044;-61
2023/12/07 11:17:53;;;;;;;317.65;71.53;;;1.00;99.90;;;;;;5115126;27;20039;-62
2023/12/07 11:20:46;;;;;;;310.92;68.93;;;1.00;99.90;;;;;;5121835;27;20457;-62
2023/12/07 11:23:15;;;;;;;165.70;53.05;;;1.00;99.90;;;;;;5109751;27;20058;-63
2023/12/07 11:25:43;;;;;;;186.77;57.88;;;1.00;99.90;;;;;;5111066;27;20047;-62
2023/12/07 11:28:11;;;;;;;202.95;61.08;;;1.00;99.90;;;;;;5109058;27;20047;-61
2023/12/07 11:30:37;;;;;;;185.23;54.67;;;1.10;99.90;;;;;;5108736;27;20050;-62
2023/12/07 11:33:06;;;;;;;187.38;55.92;;;1.10;99.90;;;;;;5109955;27;20390;-62
2023/12/07 11:35:32;;;;;;;191.15;54.28;;;1.10;99.90;;;;;;5110939;27;20035;-62
2023/12/07 11:38:09;;;;;;;195.48;58.10;;;1.10;99.90;;;;;;5110749;27;20042;-62
2023/12/07 11:40:40;;;;;;;178.20;52.97;;;1.10;99.90;;;;;;5115500;27;20042;-61
2023/12/07 11:43:06;;;;;;;189.75;56.22;;;1.20;99.90;;;;;;5114725;27;20050;-61
2023/12/07 11:45:50;;;;;;;251.38;66.82;;;1.20;99.90;;;;;;5116434;27;20430;-61
2023/12/07 11:48:18;;;;;;;199.75;57.13;;;1.20;99.90;;;;;;5118616;27;20053;-62
2023/12/07 11:51:04;;;;;;;189.25;53.33;;;1.20;99.90;;;;;;5114197;27;20036;-61
2023/12/07 11:53:31;;;;;;;238.27;60.42;;;1.30;99.90;;;;;;5113560;27;20092;-62
2023/12/07 11:55:58;;;;;;;233.32;61.38;;;1.30;99.90;;;;;;5109687;27;20490;-62
2023/12/07 11:58:30;;;;;;;255.43;58.55;;;1.30;99.90;;;;;;5117816;27;20036;-61
2023/12/07 12:00:56;;;;;;;269.88;62.05;;;1.40;99.90;;;;;;5113679;27;20048;-62
2023/12/07 12:03:22;;;;;;;230.10;58.40;;;1.40;99.90;;;;;;5113987;27;20043;-62
2023/12/07 12:05:48;;;;;;;242.43;58.33;;;1.40;99.90;;;;;;5114279;27;20058;-61
2023/12/07 12:08:15;;;;;;;236.37;56.63;;;1.40;99.90;;;;;;5112254;28;20851;-61
2023/12/07 12:10:42;;;;;;;276.50;59.88;;;1.50;99.90;;;;;;5112679;28;20405;-61
2023/12/07 12:13:08;;;;;;;334.58;68.63;;;1.50;99.90;;;;;;5107846;28;20042;-61
2023/12/07 12:15:34;;;;;;;268.23;66.68;;;1.60;99.90;;;;;;5093120;28;20481;-60
2023/12/07 12:18:00;;;;;;;322.83;69.60;;;1.50;99.90;;;;;;5111486;28;20046;-60
2023/12/07 12:20:26;;;;;;;326.80;70.47;;;1.60;99.90;;;;;;5111435;28;20044;-61
2023/12/07 12:22:55;;;;;;;272.77;63.20;;;1.60;99.90;;;;;;5112027;28;20043;-60
2023/12/07 12:25:25;;;;;;;322.75;64.70;;;1.60;99.90;;;;;;5113641;28;20035;-61
2023/12/07 12:27:53;;;;;;;294.80;66.78;;;1.70;99.90;;;;;;5111348;28;20493;-61
2023/12/07 12:30:19;;;;;;;270.25;65.60;;;1.70;99.90;;;;;;5115982;27;20092;-61
2023/12/07 12:32:46;;;;;;;301.25;70.70;;;1.70;99.90;;;;;;5117612;27;20038;-60